KRKW/RKW METAR and TAF weather

Enter ICAO airport designator
Station Type Date Time Source
KRKW METAR 2020/07/06 01:55 UTC NOAA

KRKW 060155Z AUTO 00000KT 10SM FEW120 22/21 A3002 RMK A01


Station Type Date Time Source
KRKW Decoded METAR 2020/07/06 01:55 UTC NOAA

Station name not available
Jul 05, 2020 - 09:55 PM EDT / 2020.07.06 0155 UTC
Wind: Calm:0
Visibility: 10 mile(s):0
Sky conditions: mostly clear
Temperature: 71 F (22 C)
Dew Point: 69 F (21 C)
Relative Humidity: 94%
Pressure (altimeter): 30.02 in. Hg (1016 hPa)
ob: KRKW 060155Z AUTO 00000KT 10SM FEW120 22/21 A3002 RMK A01
cycle: 2

Station Type Date Time Source
KRKW TAF 2009/08/31 19:50 UTC NOAA

METAR KRKW 311950Z AUTO VRB05KT 10SM CLR 25/13 A3010
RMK AO1 T02500133 $

Example: see airport list